Time;durP1;ratioP1;P1;durP2;ratioP2;P2;SDS_P1;SDS_P2;PMS_P1;PMS_P2;Temp;Humidity;BMP_temperature;BMP_pressure;BME280_temperature;BME280_humidity;BME280_pressure;Samples;Min_cycle;Max_cycle;Signal;HPM_P1;HPM_P2
2021/12/30 00:01:33;;;;;;;1999.90;584.40;;;;;;;4.40;nan;100395.44;5053675;28;20514;-72
2021/12/30 00:04:19;;;;;;;180.88;54.35;;;;;;;4.72;nan;100405.59;5055754;28;20044;-73
2021/12/30 00:07:05;;;;;;;144.35;47.15;;;;;;;4.60;nan;100407.91;5049295;28;20103;-73
2021/12/30 00:09:51;;;;;;;127.50;45.25;;;;;;;4.40;nan;100395.44;5053860;28;20444;-73
2021/12/30 00:12:37;;;;;;;117.78;43.10;;;;;;;4.25;nan;100398.09;5054972;28;20033;-73
2021/12/30 00:15:24;;;;;;;114.75;42.17;;;;;;;4.30;nan;100417.59;5049817;28;20043;-73
2021/12/30 00:18:10;;;;;;;120.28;43.05;;;;;;;4.19;nan;100405.84;5054965;28;20044;-73
2021/12/30 00:20:56;;;;;;;113.70;41.15;;;;;;;4.22;nan;100416.72;5048005;28;20565;-72
2021/12/30 00:23:42;;;;;;;114.43;39.92;;;;;;;4.14;nan;100413.41;5052548;28;20037;-71
2021/12/30 00:26:28;;;;;;;115.78;40.45;;;;;;;4.13;nan;100423.00;5054858;28;20397;-73
2021/12/30 00:29:14;;;;;;;119.32;40.95;;;;;;;4.09;nan;100429.56;5053389;28;20071;-73
2021/12/30 00:32:00;;;;;;;122.25;42.72;;;;;;;4.04;nan;100414.47;5051576;28;20094;-73
2021/12/30 00:34:45;;;;;;;127.13;43.70;;;;;;;4.10;nan;100435.63;5054754;28;20375;-73
2021/12/30 00:37:31;;;;;;;115.28;39.80;;;;;;;4.09;nan;100444.41;5053001;28;20204;-73
2021/12/30 00:40:17;;;;;;;119.00;39.17;;;;;;;4.01;nan;100440.91;5053846;28;20037;-73
2021/12/30 00:43:04;;;;;;;123.07;39.97;;;;;;;3.95;nan;100436.44;5053974;28;20025;-73
2021/12/30 00:45:50;;;;;;;127.63;42.83;;;;;;;3.95;nan;100457.28;5052585;28;20367;-72
2021/12/30 00:48:37;;;;;;;130.27;42.25;;;;;;;3.91;nan;100453.41;5054092;28;20086;-73
2021/12/30 00:51:22;;;;;;;153.88;42.65;;;;;;;3.96;nan;100448.47;5048326;28;20067;-71
2021/12/30 00:54:08;;;;;;;126.80;41.35;;;;;;;3.88;nan;100434.69;5052432;28;20033;-71
2021/12/30 00:56:54;;;;;;;128.10;40.88;;;;;;;3.92;nan;100444.59;5053237;28;20516;-71
2021/12/30 00:59:40;;;;;;;128.25;41.03;;;;;;;3.92;nan;100455.00;5053586;28;20086;-70
2021/12/30 01:02:26;;;;;;;140.52;40.63;;;;;;;3.92;nan;100456.81;5052489;28;20040;-71
2021/12/30 01:05:12;;;;;;;136.23;41.35;;;;;;;3.67;nan;100420.63;5048638;28;20076;-71
2021/12/30 01:07:58;;;;;;;135.23;39.60;;;;;;;3.93;nan;100459.25;5035660;28;20037;-71
2021/12/30 01:10:44;;;;;;;129.02;40.72;;;;;;;3.88;nan;100456.38;5052297;28;20095;-71
2021/12/30 01:13:31;;;;;;;144.23;41.40;;;;;;;3.82;nan;100452.66;5049008;28;20116;-71
2021/12/30 01:16:19;;;;;;;138.63;40.50;;;;;;;3.91;nan;100468.22;5053350;28;20095;-71
2021/12/30 01:22:00;;;;;;;141.25;41.60;;;;;;;3.83;nan;100458.69;5052736;28;20402;-71
2021/12/30 01:24:47;;;;;;;147.68;40.63;;;;;;;3.82;nan;100463.09;5048230;28;20402;-71
2021/12/30 01:27:36;;;;;;;135.20;40.78;;;;;;;3.73;nan;100452.94;5038333;28;20033;-71
2021/12/30 01:30:22;;;;;;;130.98;40.58;;;;;;;3.86;nan;100473.97;5053699;28;20033;-72
2021/12/30 01:33:08;;;;;;;141.30;40.83;;;;;;;3.83;nan;100471.72;5052790;28;20413;-71
2021/12/30 01:35:53;;;;;;;146.43;41.22;;;;;;;3.86;nan;100476.59;5043316;28;20044;-72
2021/12/30 01:38:40;;;;;;;139.35;40.38;;;;;;;3.80;nan;100466.88;5051699;28;20060;-72
2021/12/30 01:41:25;;;;;;;156.48;40.53;;;;;;;3.86;nan;100487.00;5049622;28;20047;-72
2021/12/30 01:44:11;;;;;;;142.82;40.70;;;;;;;3.81;nan;100489.34;5050282;28;20091;-71
2021/12/30 01:46:57;;;;;;;142.13;40.42;;;;;;;3.87;nan;100487.81;5053743;28;20037;-71
2021/12/30 01:49:43;;;;;;;132.77;39.38;;;;;;;3.80;nan;100478.09;5052250;28;20040;-72
2021/12/30 01:52:29;;;;;;;135.70;39.60;;;;;;;3.88;nan;100494.63;5046699;28;20094;-71
2021/12/30 01:55:16;;;;;;;139.80;39.55;;;;;;;3.80;nan;100482.50;5036704;28;20091;-71
2021/12/30 01:58:02;;;;;;;144.85;39.25;;;;;;;3.73;nan;100478.97;5051109;28;20085;-72
2021/12/30 02:00:50;;;;;;;137.77;37.80;;;;;;;3.56;nan;100452.28;5051148;28;20041;-71
2021/12/30 02:03:36;;;;;;;147.07;39.88;;;;;;;3.77;nan;100495.88;5050593;28;20032;-72
2021/12/30 02:06:22;;;;;;;144.35;38.65;;;;;;;3.70;nan;100489.75;5051628;28;20041;-71
2021/12/30 02:09:08;;;;;;;145.10;37.35;;;;;;;3.73;nan;100508.44;5052722;28;20384;-72
2021/12/30 02:11:54;;;;;;;149.13;41.20;;;;;;;3.75;nan;100505.66;5050138;28;20124;-71
2021/12/30 02:14:40;;;;;;;139.20;37.47;;;;;;;3.70;nan;100502.78;5051750;28;20035;-72
2021/12/30 02:17:26;;;;;;;143.55;39.63;;;;;;;3.73;nan;100513.63;5047245;28;20401;-71
2021/12/30 02:20:32;;;;;;;145.32;39.22;;;;;;;3.77;nan;100514.09;5050767;28;20410;-71
2021/12/30 02:23:22;;;;;;;147.60;39.67;;;;;;;3.76;nan;100521.13;5038479;28;20167;-72
2021/12/30 02:26:11;;;;;;;146.55;39.47;;;;;;;3.76;nan;100518.53;5036191;28;20029;-72
2021/12/30 02:28:56;;;;;;;132.95;37.80;;;;;;;3.72;nan;100508.63;5051073;28;20075;-72
2021/12/30 02:31:42;;;;;;;134.27;38.17;;;;;;;3.67;nan;100503.16;5045498;28;20489;-72
2021/12/30 02:34:28;;;;;;;145.30;38.28;;;;;;;3.72;nan;100517.25;5051964;28;20524;-71
2021/12/30 02:37:19;;;;;;;123.07;35.63;;;;;;;3.73;nan;100533.69;5050755;28;20128;-72
2021/12/30 02:40:06;;;;;;;127.63;37.83;;;;;;;3.69;nan;100528.03;5051762;28;20094;-72
2021/12/30 02:42:52;;;;;;;123.15;36.28;;;;;;;3.65;nan;100528.56;5050311;28;20025;-71
2021/12/30 02:45:38;;;;;;;122.38;35.55;;;;;;;3.70;nan;100534.84;5048941;28;20029;-71
2021/12/30 02:48:28;;;;;;;133.98;38.13;;;;;;;3.74;nan;100548.34;5051411;28;20029;-71
2021/12/30 02:51:13;;;;;;;152.70;38.17;;;;;;;3.72;nan;100553.72;5052233;28;20048;-71
2021/12/30 02:54:00;;;;;;;143.88;38.60;;;;;;;3.70;nan;100547.06;5051839;28;20397;-71
2021/12/30 02:56:47;;;;;;;137.40;36.55;;;;;;;3.66;nan;100551.00;5051805;28;20033;-71
2021/12/30 02:59:33;;;;;;;135.50;37.72;;;;;;;3.76;nan;100561.97;5050463;28;20029;-71
2021/12/30 03:02:18;;;;;;;130.23;36.35;;;;;;;3.72;nan;100556.31;5036242;28;20041;-72
2021/12/30 03:05:08;;;;;;;124.40;37.53;;;;;;;3.73;nan;100555.31;5044292;28;20040;-71
2021/12/30 03:07:54;;;;;;;;;;;;;;;3.71;nan;100565.13;5035522;28;20032;-71
2021/12/30 03:10:40;;;;;;;122.97;33.22;;;;;;;3.68;nan;100560.25;5051864;28;20006;-72
2021/12/30 03:13:31;;;;;;;138.55;37.60;;;;;;;3.63;nan;100562.56;5050925;28;20044;-72
2021/12/30 03:16:25;;;;;;;130.75;36.92;;;;;;;3.65;nan;100565.00;5050101;28;20490;-71
2021/12/30 03:19:11;;;;;;;143.30;39.90;;;;;;;3.65;nan;100565.00;5047452;28;20484;-72
2021/12/30 03:21:57;;;;;;;145.65;39.28;;;;;;;3.64;nan;100569.41;5050499;28;20025;-72
2021/12/30 03:24:42;;;;;;;143.65;38.85;;;;;;;3.59;nan;100569.94;5037283;28;20072;-72
2021/12/30 03:27:28;;;;;;;146.20;39.47;;;;;;;3.61;nan;100574.94;5045820;28;20064;-72
2021/12/30 03:30:16;;;;;;;148.43;39.80;;;;;;;3.66;nan;100580.44;5051822;28;20037;-71
2021/12/30 03:33:02;;;;;;;160.40;41.83;;;;;;;3.60;nan;100562.94;5049899;28;20052;-71
2021/12/30 03:35:48;;;;;;;145.05;39.92;;;;;;;3.67;nan;100579.47;5035997;28;20037;-72
2021/12/30 03:38:37;;;;;;;142.70;39.42;;;;;;;3.65;nan;100593.66;5050335;28;20097;-72
2021/12/30 03:41:25;;;;;;;156.18;39.53;;;;;;;3.61;nan;100590.56;5050807;28;20041;-71
2021/12/30 03:44:11;;;;;;;160.40;38.60;;;;;;;3.58;nan;100590.94;5034475;28;20040;-72
2021/12/30 03:46:57;;;;;;;154.40;38.42;;;;;;;3.57;nan;100591.91;5048982;28;20044;-71
2021/12/30 03:49:44;;;;;;;150.55;39.60;;;;;;;3.66;nan;100603.06;5035721;28;20501;-71
2021/12/30 03:52:31;;;;;;;149.13;39.72;;;;;;;3.58;nan;100599.53;5051146;28;20076;-72
2021/12/30 03:55:20;;;;;;;146.73;37.20;;;;;;;3.65;nan;100617.09;5050240;28;20032;-71
2021/12/30 03:58:06;;;;;;;137.40;36.83;;;;;;;3.62;nan;100608.63;5036242;28;20040;-71
2021/12/30 04:00:51;;;;;;;173.60;38.08;;;;;;;3.66;nan;100616.09;5044377;28;20061;-72
2021/12/30 04:03:38;;;;;;;161.50;36.45;;;;;;;3.57;nan;100602.34;5051116;28;20122;-71
2021/12/30 04:06:24;;;;;;;152.75;36.03;;;;;;;3.66;nan;100629.09;5049916;28;20040;-72
2021/12/30 04:09:09;;;;;;;160.77;37.00;;;;;;;3.56;nan;100624.94;5050170;28;20115;-71
2021/12/30 04:11:55;;;;;;;147.27;36.42;;;;;;;3.58;nan;100635.19;5028414;28;20045;-71
2021/12/30 04:14:41;;;;;;;178.05;38.10;;;;;;;3.54;nan;100637.31;5050527;28;20044;-72
2021/12/30 04:17:28;;;;;;;155.82;39.08;;;;;;;3.57;nan;100639.59;5050036;28;20440;-72
2021/12/30 04:20:15;;;;;;;150.82;36.08;;;;;;;3.63;nan;100643.28;5033667;28;20056;-71
2021/12/30 04:23:01;;;;;;;149.00;37.00;;;;;;;3.56;nan;100639.75;5034690;28;20394;-73
2021/12/30 04:25:47;;;;;;;163.77;38.65;;;;;;;3.54;nan;100647.72;5049782;28;20040;-74
2021/12/30 04:28:32;;;;;;;145.25;37.63;;;;;;;3.58;nan;100648.22;5051177;28;20056;-74
2021/12/30 04:31:18;;;;;;;140.40;36.17;;;;;;;3.56;nan;100652.78;5035796;28;20045;-73
2021/12/30 04:34:04;;;;;;;137.68;35.58;;;;;;;3.53;nan;100635.72;5035644;28;20584;-74
2021/12/30 04:36:50;;;;;;;129.32;34.75;;;;;;;3.50;nan;100627.44;5049955;28;20041;-74
2021/12/30 04:39:36;;;;;;;134.10;36.50;;;;;;;3.50;nan;100646.47;5052887;28;20037;-74
2021/12/30 04:42:22;;;;;;;143.32;37.15;;;;;;;3.53;nan;100651.34;5054442;28;20052;-72
2021/12/30 04:45:09;;;;;;;151.18;36.88;;;;;;;3.56;nan;100661.38;5039253;28;20116;-74
2021/12/30 04:47:55;;;;;;;242.38;44.00;;;;;;;3.55;nan;100654.56;5054173;28;20060;-74
2021/12/30 04:50:41;;;;;;;134.57;36.13;;;;;;;3.50;nan;100643.06;5053606;28;20069;-74
2021/12/30 04:53:27;;;;;;;169.88;39.08;;;;;;;3.54;nan;100652.94;5039618;28;20033;-74
2021/12/30 04:56:13;;;;;;;130.43;37.00;;;;;;;3.54;nan;100662.53;5037701;28;20033;-74
2021/12/30 04:58:59;;;;;;;118.10;34.83;;;;;;;3.59;nan;100675.84;5053895;28;20418;-74
2021/12/30 05:01:45;;;;;;;109.63;33.83;;;;;;;3.53;nan;100674.75;5054360;28;20040;-74
2021/12/30 05:04:30;;;;;;;107.57;32.78;;;;;;;3.28;nan;100642.03;5052948;28;20025;-74
2021/12/30 05:07:16;;;;;;;112.80;33.30;;;;;;;3.48;nan;100687.47;5054225;28;20036;-74
2021/12/30 05:10:02;;;;;;;103.45;31.83;;;;;;;3.52;nan;100693.16;5052962;28;20025;-73
2021/12/30 05:12:49;;;;;;;108.05;31.90;;;;;;;3.46;nan;100699.84;5050908;28;20426;-74
2021/12/30 05:15:35;;;;;;;101.22;30.20;;;;;;;3.47;nan;100705.88;5051447;28;20036;-74
2021/12/30 05:18:29;;;;;;;95.47;30.30;;;;;;;3.39;nan;100706.72;5049885;28;20498;-74
2021/12/30 05:21:15;;;;;;;874.88;70.90;;;;;;;3.39;nan;100707.53;5037875;28;20043;-74
2021/12/30 05:24:01;;;;;;;99.50;29.30;;;;;;;3.45;nan;100718.25;5051796;28;20044;-74
2021/12/30 05:26:47;;;;;;;110.00;32.90;;;;;;;3.43;nan;100728.84;5034984;28;20035;-74
2021/12/30 05:29:32;;;;;;;108.65;34.15;;;;;;;3.46;nan;100736.31;5046293;28;20036;-74
2021/12/30 05:32:18;;;;;;;102.80;32.55;;;;;;;3.39;nan;100737.97;5052517;28;20045;-74
2021/12/30 05:35:06;;;;;;;98.78;30.60;;;;;;;3.36;nan;100743.50;5050629;28;20418;-74
2021/12/30 05:37:52;;;;;;;104.70;32.13;;;;;;;3.34;nan;100748.06;5052534;28;20052;-74
2021/12/30 05:40:38;;;;;;;96.13;30.08;;;;;;;3.44;nan;100769.50;5037631;28;20060;-74
2021/12/30 05:43:23;;;;;;;97.95;29.20;;;;;;;3.45;nan;100784.16;5052303;28;20033;-74
2021/12/30 05:46:09;;;;;;;91.82;29.00;;;;;;;3.20;nan;100758.19;5047239;28;20110;-73
2021/12/30 05:48:55;;;;;;;91.47;28.48;;;;;;;3.34;nan;100784.50;5052134;28;20041;-73
2021/12/30 05:51:41;;;;;;;97.32;28.63;;;;;;;3.34;nan;100794.94;5052580;28;20079;-74
2021/12/30 05:54:27;;;;;;;94.28;29.05;;;;;;;3.33;nan;100795.91;5059890;28;20079;-74
2021/12/30 05:57:13;;;;;;;88.78;30.10;;;;;;;3.30;nan;100791.84;5050678;28;20033;-74
2021/12/30 05:59:59;;;;;;;99.63;30.13;;;;;;;3.29;nan;100795.44;5052506;28;20051;-74
2021/12/30 06:02:45;;;;;;;94.45;28.90;;;;;;;3.31;nan;100808.28;5048869;28;20075;-73
2021/12/30 06:05:30;;;;;;;98.97;31.08;;;;;;;3.28;nan;100808.59;5037084;28;20043;-74
2021/12/30 06:08:16;;;;;;;103.38;30.90;;;;;;;3.28;nan;100812.03;5050274;28;20029;-74
2021/12/30 06:11:03;;;;;;;105.53;31.50;;;;;;;3.29;nan;100828.47;5037808;28;20497;-73
2021/12/30 06:13:48;;;;;;;100.47;29.67;;;;;;;3.36;nan;100843.25;5037724;28;20037;-74
2021/12/30 06:16:34;;;;;;;100.10;31.58;;;;;;;3.30;nan;100837.88;5052409;28;20037;-73
2021/12/30 06:19:20;;;;;;;103.90;31.63;;;;;;;3.34;nan;100849.59;5050727;28;20502;-74
2021/12/30 06:22:06;;;;;;;99.88;33.00;;;;;;;3.37;nan;100859.66;5037051;28;20379;-74
2021/12/30 06:24:52;;;;;;;106.57;31.00;;;;;;;3.36;nan;100858.06;5051910;28;20120;-73
2021/12/30 06:27:38;;;;;;;108.88;31.77;;;;;;;3.32;nan;100849.75;5051107;28;20525;-72
2021/12/30 06:30:24;;;;;;;104.72;31.70;;;;;;;3.39;nan;100868.94;5037855;28;20494;-74
2021/12/30 06:33:10;;;;;;;110.82;32.97;;;;;;;3.34;nan;100873.00;5052250;28;20060;-74
2021/12/30 06:35:55;;;;;;;105.70;33.20;;;;;;;3.33;nan;100874.81;5050374;28;20063;-74
2021/12/30 06:38:41;;;;;;;115.57;36.85;;;;;;;3.31;nan;100865.53;5051907;28;20056;-74
2021/12/30 06:41:27;;;;;;;113.00;32.83;;;;;;;3.27;nan;100865.06;5036529;28;20082;-74
2021/12/30 06:44:12;;;;;;;105.30;31.23;;;;;;;3.16;nan;100854.97;5050871;28;20103;-72
2021/12/30 06:47:00;;;;;;;105.95;31.20;;;;;;;3.39;nan;100887.16;5050913;28;20833;-74
2021/12/30 06:49:46;;;;;;;103.75;33.05;;;;;;;3.34;nan;100884.22;5051229;28;20040;-73
2021/12/30 06:52:32;;;;;;;108.60;32.50;;;;;;;3.38;nan;100884.72;5034001;28;20041;-74
2021/12/30 06:55:18;;;;;;;107.65;31.52;;;;;;;3.38;nan;100889.94;5046503;28;20445;-75
2021/12/30 06:58:04;;;;;;;105.43;32.10;;;;;;;3.34;nan;100894.66;5041983;28;20581;-74
2021/12/30 07:00:50;;;;;;;107.20;31.85;;;;;;;3.35;nan;100893.69;5027590;28;20045;-74
2021/12/30 07:03:36;;;;;;;111.65;31.70;;;;;;;3.33;nan;100889.63;5031269;28;20036;-74
2021/12/30 07:06:22;;;;;;;91.18;29.02;;;;;;;3.35;nan;100896.28;5038036;28;20029;-74
2021/12/30 07:09:08;;;;;;;96.82;29.20;;;;;;;3.40;nan;100911.41;5034040;28;20033;-75
2021/12/30 07:11:54;;;;;;;155.40;33.08;;;;;;;3.34;nan;100910.25;5042341;28;20128;-73
2021/12/30 07:14:39;;;;;;;95.47;29.17;;;;;;;3.36;nan;100916.13;5050816;28;20091;-74
2021/12/30 07:17:29;;;;;;;77.90;28.52;;;;;;;3.28;nan;100905.72;5048615;28;20048;-74
2021/12/30 07:20:15;;;;;;;85.95;28.92;;;;;;;3.35;nan;100922.31;5050467;28;20554;-74
2021/12/30 07:23:02;;;;;;;90.45;28.20;;;;;;;3.37;nan;100929.94;5029023;28;20107;-74
2021/12/30 07:25:48;;;;;;;87.22;28.98;;;;;;;3.33;nan;100929.47;5046402;28;20048;-75
2021/12/30 07:28:34;;;;;;;99.07;33.00;;;;;;;3.36;nan;100936.94;5026675;28;20076;-75
2021/12/30 07:31:19;;;;;;;93.57;32.47;;;;;;;3.36;nan;100936.94;5023233;28;20049;-75
2021/12/30 07:34:05;;;;;;;109.03;41.40;;;;;;;3.45;nan;100949.94;5044808;28;20029;-74
2021/12/30 07:36:51;;;;;;;97.57;38.28;;;;;;;3.35;nan;100942.31;5050427;28;20069;-74
2021/12/30 07:39:36;;;;;;;102.05;38.53;;;;;;;3.42;nan;100961.50;5035002;28;20079;-73
2021/12/30 07:42:22;;;;;;;106.00;38.22;;;;;;;3.26;nan;100940.72;5036929;28;20040;-74
2021/12/30 07:45:09;;;;;;;97.03;35.58;;;;;;;3.39;nan;100964.44;5046857;28;20045;-74
2021/12/30 07:47:55;;;;;;;304.40;133.63;;;;;;;3.50;nan;100984.13;5045826;28;20032;-74
2021/12/30 07:50:41;;;;;;;164.23;59.42;;;;;;;3.70;nan;100980.19;5047975;28;20398;-74
2021/12/30 07:53:27;;;;;;;155.07;48.13;;;;;;;3.91;nan;100984.06;5046498;28;20048;-74
2021/12/30 07:56:12;;;;;;;142.82;44.30;;;;;;;4.15;nan;100978.78;5049957;28;20394;-74
2021/12/30 07:58:58;;;;;;;164.65;51.25;;;;;;;4.34;nan;100980.19;5043834;28;20799;-73
2021/12/30 08:01:44;;;;;;;165.65;45.33;;;;;;;4.48;nan;100982.06;5045375;28;20406;-75
2021/12/30 08:04:29;;;;;;;140.65;42.72;;;;;;;4.62;nan;100993.59;5050897;28;20471;-75
2021/12/30 08:07:20;;;;;;;123.43;38.83;;;;;;;4.59;nan;100982.66;5050106;28;20047;-75
2021/12/30 08:10:10;;;;;;;97.68;32.83;;;;;;;4.54;nan;101003.22;5046581;28;20071;-75
2021/12/30 08:12:56;;;;;;;91.88;31.45;;;;;;;4.40;nan;100995.13;5053408;28;20048;-76
2021/12/30 08:15:43;;;;;;;79.78;28.17;;;;;;;4.54;nan;101013.66;5039672;28;20041;-74
2021/12/30 08:18:29;;;;;;;82.75;31.23;;;;;;;4.44;nan;101012.06;5049218;28;20829;-74
2021/12/30 08:21:15;;;;;;;82.22;32.72;;;;;;;4.46;nan;101015.31;5047602;28;20441;-77
2021/12/30 08:24:01;;;;;;;112.25;44.80;;;;;;;4.39;nan;101027.41;5048819;28;20041;-77
2021/12/30 08:26:46;;;;;;;94.53;37.03;;;;;;;4.28;nan;101022.56;5041405;28;20537;-80
2021/12/30 08:29:33;;;;;;;75.07;30.27;;;;;;;4.17;nan;101010.72;5037763;28;20087;-77
2021/12/30 08:32:18;;;;;;;65.00;25.35;;;;;;;4.14;nan;101013.66;5039399;28;20051;-77
2021/12/30 08:35:06;;;;;;;55.13;23.02;;;;;;;4.13;nan;101014.63;5038525;28;20056;-78
2021/12/30 08:37:54;;;;;;;48.22;20.60;;;;;;;4.05;nan;101023.28;5038447;28;20091;-78
2021/12/30 08:40:40;;;;;;;57.33;21.25;;;;;;;3.94;nan;101026.22;5035640;28;20115;-80
2021/12/30 08:43:26;;;;;;;50.65;21.45;;;;;;;4.03;nan;101066.13;5033252;28;20040;-79
2021/12/30 08:46:12;;;;;;;60.00;23.13;;;;;;;3.30;nan;100948.00;5037835;28;20069;-79
2021/12/30 08:48:58;;;;;;;72.25;27.30;;;;;;;4.03;nan;101058.31;5038706;28;20037;-79
2021/12/30 08:51:44;;;;;;;78.68;26.58;;;;;;;3.92;nan;101035.19;5043492;28;20037;-79
2021/12/30 08:54:31;;;;;;;74.93;26.13;;;;;;;4.03;nan;101058.31;5053647;28;20048;-78
2021/12/30 08:57:20;;;;;;;71.20;25.63;;;;;;;4.10;nan;101081.91;5044073;28;20056;-80
2021/12/30 09:00:12;;;;;;;66.60;25.63;;;;;;;3.53;nan;101005.44;5051675;28;20390;-78
2021/12/30 09:03:00;;;;;;;72.10;25.63;;;;;;;3.92;nan;101062.06;5053851;28;20297;-78
2021/12/30 09:05:46;;;;;;;63.23;25.27;;;;;;;3.89;nan;101066.78;5052613;28;20091;-78
2021/12/30 09:08:32;;;;;;;920.67;149.90;;;;;;;3.96;nan;101068.56;5051351;28;20090;-77
2021/12/30 09:11:18;;;;;;;1999.90;999.90;;;;;;;4.45;nan;101067.63;5037851;28;20387;-78
2021/12/30 09:14:04;;;;;;;123.72;36.28;;;;;;;4.83;nan;101080.88;5052977;28;20041;-78
2021/12/30 09:16:50;;;;;;;127.43;37.15;;;;;;;4.68;nan;101073.75;5051468;28;20045;-78
2021/12/30 09:19:35;;;;;;;86.13;29.75;;;;;;;4.59;nan;101079.16;5046013;28;20029;-77
2021/12/30 09:22:21;;;;;;;75.00;28.27;;;;;;;4.47;nan;101084.75;5035303;28;20050;-82
2021/12/30 09:25:09;;;;;;;78.55;29.45;;;;;;;4.45;nan;101085.91;5052865;28;20033;-82
2021/12/30 09:27:56;;;;;;;82.22;28.75;;;;;;;4.69;nan;101104.09;5039534;28;20061;-81
2021/12/30 09:30:45;;;;;;;90.03;32.05;;;;;;;4.83;nan;101096.53;5055082;28;20063;-77
2021/12/30 09:33:31;;;;;;;84.10;30.13;;;;;;;4.82;nan;101056.59;5056535;28;20037;-80
2021/12/30 09:36:16;;;;;;;75.65;29.33;;;;;;;5.23;nan;101086.88;5057710;28;20494;-76
2021/12/30 09:39:10;;;;;;;64.88;26.10;;;;;;;5.37;nan;101085.31;5038381;28;20059;-82
2021/12/30 09:41:56;;;;;;;57.47;25.30;;;;;;;5.25;nan;101064.00;5051306;28;20060;-76
2021/12/30 09:44:42;;;;;;;73.20;29.08;;;;;;;5.57;nan;101101.34;5045737;28;20037;-77
2021/12/30 09:47:27;;;;;;;69.75;29.67;;;;;;;5.69;nan;101111.19;5039629;28;20037;-76
2021/12/30 09:50:14;;;;;;;70.57;29.90;;;;;;;5.87;nan;101121.34;5037800;28;20116;-77
2021/12/30 09:53:00;;;;;;;77.13;30.85;;;;;;;5.99;nan;101116.56;5038615;28;20119;-75
2021/12/30 09:55:47;;;;;;;80.47;30.83;;;;;;;5.98;nan;101099.22;5052096;28;20090;-78
2021/12/30 09:58:33;;;;;;;63.95;26.35;;;;;;;5.93;nan;101112.78;5051786;28;20045;-77
2021/12/30 10:01:19;;;;;;;70.85;26.77;;;;;;;5.95;nan;101115.28;5033239;28;20033;-74
2021/12/30 10:04:05;;;;;;;73.90;28.70;;;;;;;5.93;nan;101104.94;5037353;28;20516;-73
2021/12/30 10:06:51;;;;;;;60.42;24.52;;;;;;;5.99;nan;101095.63;5043934;28;20032;-77
2021/12/30 10:09:52;;;;;;;56.42;23.23;;;;;;;5.96;nan;101096.81;5046405;28;20034;-76
2021/12/30 10:12:40;;;;;;;60.35;24.65;;;;;;;5.89;nan;101101.09;5034240;28;20029;-76
2021/12/30 10:15:39;;;;;;;59.67;24.00;;;;;;;5.71;nan;101084.91;5047604;28;20052;-77
2021/12/30 10:18:40;;;;;;;67.90;25.10;;;;;;;5.72;nan;101092.56;5035924;28;20126;-76
2021/12/30 10:21:38;;;;;;;75.68;24.48;;;;;;;5.61;nan;101089.56;5038090;28;20040;-76
2021/12/30 10:24:32;;;;;;;63.38;24.67;;;;;;;5.53;nan;101095.63;5057957;28;20061;-75
2021/12/30 10:27:29;;;;;;;46.58;20.65;;;;;;;5.19;nan;101093.41;5048725;28;20059;-76
2021/12/30 10:30:28;;;;;;;50.42;21.85;;;;;;;5.09;nan;101106.69;5045188;28;20037;-77
2021/12/30 10:33:26;;;;;;;55.38;22.40;;;;;;;4.99;nan;101080.78;5038968;28;20033;-77
2021/12/30 10:36:19;;;;;;;67.10;24.95;;;;;;;5.13;nan;101102.75;5022555;28;20033;-77
2021/12/30 10:39:18;;;;;;;59.05;22.48;;;;;;;5.11;nan;101104.72;5039307;28;20045;-78
2021/12/30 10:42:09;;;;;;;59.58;23.15;;;;;;;5.04;nan;101093.34;5022067;28;20041;-78
2021/12/30 10:44:58;;;;;;;54.70;22.15;;;;;;;4.88;nan;101089.84;5036379;28;20095;-78
2021/12/30 10:47:53;;;;;;;60.20;25.08;;;;;;;4.86;nan;101099.63;5036602;28;20491;-78
2021/12/30 10:50:38;;;;;;;61.55;27.73;;;;;;;4.79;nan;101090.84;5026123;28;20116;-78
2021/12/30 10:53:30;;;;;;;72.25;30.20;;;;;;;4.69;nan;101077.16;5024623;28;20093;-78
2021/12/30 10:56:19;;;;;;;72.13;29.40;;;;;;;4.90;nan;101097.47;5051423;28;20071;-78
2021/12/30 10:59:30;;;;;;;72.78;33.47;;;;;;;5.00;nan;101102.47;5030677;28;20034;-77
2021/12/30 11:02:21;;;;;;;1999.90;999.90;;;;;;;5.22;nan;101108.72;5031409;28;20064;-78
2021/12/30 11:05:10;;;;;;;156.68;53.42;;;;;;;5.54;nan;101103.31;5049577;28;20048;-79
2021/12/30 11:07:56;;;;;;;122.40;40.63;;;;;;;5.61;nan;101121.72;5051946;28;20025;-78
2021/12/30 11:10:42;;;;;;;84.15;30.75;;;;;;;5.07;nan;101124.31;5033925;28;20120;-78
2021/12/30 11:13:28;;;;;;;80.97;32.90;;;;;;;4.87;nan;101119.50;5052165;28;20029;-77
2021/12/30 11:16:14;;;;;;;79.88;33.70;;;;;;;4.94;nan;101134.50;5050658;28;20032;-77
2021/12/30 11:19:07;;;;;;;76.05;33.15;;;;;;;4.79;nan;101130.00;5037226;28;20033;-77
2021/12/30 11:21:54;;;;;;;65.32;27.05;;;;;;;4.72;nan;101151.69;5034878;28;20029;-76
2021/12/30 11:24:41;;;;;;;62.60;26.45;;;;;;;4.51;nan;101160.06;5023903;28;20030;-78
2021/12/30 11:27:30;;;;;;;79.00;29.48;;;;;;;4.55;nan;101161.34;5026833;28;20029;-79
2021/12/30 11:30:18;;;;;;;68.97;31.08;;;;;;;4.63;nan;101164.75;5023871;28;20030;-78
2021/12/30 11:33:04;;;;;;;65.15;31.92;;;;;;;4.66;nan;101151.38;5023860;28;20036;-79
2021/12/30 11:35:50;;;;;;;52.15;25.60;;;;;;;4.47;nan;101149.13;5016317;28;20048;-77
2021/12/30 11:38:35;;;;;;;48.85;22.60;;;;;;;4.39;nan;101152.56;5039590;28;20122;-77
2021/12/30 11:41:24;;;;;;;43.22;21.17;;;;;;;4.30;nan;101150.94;5049182;28;20032;-76
2021/12/30 11:44:30;;;;;;;41.17;20.75;;;;;;;4.44;nan;101170.34;5029523;28;20029;-76
2021/12/30 11:47:40;;;;;;;42.88;21.27;;;;;;;4.45;nan;101177.16;5042341;28;20037;-77
2021/12/30 11:50:26;;;;;;;39.58;19.73;;;;;;;4.46;nan;101182.22;5041006;28;20402;-76
2021/12/30 11:53:24;;;;;;;27.85;14.38;;;;;;;4.41;nan;101168.88;5024921;28;20042;-76
2021/12/30 11:56:10;;;;;;;25.58;14.45;;;;;;;4.43;nan;101179.13;5038348;28;20047;-76
2021/12/30 11:58:59;;;;;;;26.48;14.68;;;;;;;4.43;nan;101172.13;5054378;28;20506;-77
2021/12/30 12:01:45;;;;;;;57.25;24.17;;;;;;;4.29;nan;101148.53;5040728;28;20048;-76
2021/12/30 12:04:31;;;;;;;38.88;21.10;;;;;;;4.38;nan;101163.16;5043536;28;20034;-78
2021/12/30 12:07:17;;;;;;;39.17;22.73;;;;;;;4.30;nan;101143.13;5027150;28;20033;-77
2021/12/30 12:10:16;;;;;;;36.97;18.83;;;;;;;4.33;nan;101139.38;5027190;28;20033;-77
2021/12/30 12:13:33;;;;;;;31.33;15.38;;;;;;;4.35;nan;101140.03;5038903;28;20406;-77
2021/12/30 12:16:47;;;;;;;31.42;14.90;;;;;;;4.31;nan;101139.56;5059456;28;20036;-77
2021/12/30 12:19:47;;;;;;;32.55;14.68;;;;;;;4.29;nan;101145.94;5049282;28;20037;-77
2021/12/30 12:22:33;;;;;;;32.42;16.08;;;;;;;4.23;nan;101145.59;5051418;28;20048;-77
2021/12/30 12:25:28;;;;;;;35.53;15.63;;;;;;;4.38;nan;101150.13;5038022;28;20421;-75
2021/12/30 12:28:20;;;;;;;29.67;14.15;;;;;;;4.36;nan;101152.91;5043178;28;20466;-76
2021/12/30 12:31:07;;;;;;;30.27;14.25;;;;;;;4.39;nan;101163.00;5032993;28;20550;-77
2021/12/30 12:33:58;;;;;;;26.27;12.15;;;;;;;4.30;nan;101160.56;5042891;28;20033;-77
2021/12/30 12:36:44;;;;;;;24.30;12.80;;;;;;;4.13;nan;101150.16;5036824;28;20032;-76
2021/12/30 12:39:36;;;;;;;27.20;13.68;;;;;;;3.89;nan;101124.13;5055262;28;20056;-77
2021/12/30 12:42:51;;;;;;;33.88;15.70;;;;;;;4.12;nan;101179.81;5038642;28;20167;-76
2021/12/30 12:45:41;;;;;;;39.88;19.77;;;;;;;4.16;nan;101193.31;5041676;28;20033;-77
2021/12/30 12:48:30;;;;;;;35.75;18.25;;;;;;;4.09;nan;101192.34;5039513;28;20120;-77
2021/12/30 12:51:27;;;;;;;36.63;17.88;;;;;;;3.97;nan;101181.44;5053740;28;20460;-76
2021/12/30 12:54:13;;;;;;;39.25;18.20;;;;;;;3.94;nan;101189.56;5053822;28;20035;-76
2021/12/30 12:57:16;;;;;;;39.60;16.40;;;;;;;3.95;nan;101181.59;5037657;28;20040;-76
2021/12/30 13:00:03;;;;;;;36.60;15.50;;;;;;;4.07;nan;101176.06;5035997;28;20037;-77
2021/12/30 13:02:51;;;;;;;40.83;16.83;;;;;;;4.21;nan;101178.00;5038638;28;20120;-77
2021/12/30 13:05:37;;;;;;;36.90;16.65;;;;;;;4.20;nan;101168.56;5040985;28;20030;-77
2021/12/30 13:08:23;;;;;;;41.65;19.15;;;;;;;4.26;nan;101173.13;5053214;28;20059;-76